Plan B — ZCND5 — position and weather

sailwx.info

Track history (hours):
 
Tides and Currents Weather Stations Pressure Air Temp Water Temp Dewpoint Dewpoint Depression Visibility Wind Speed Wind Dir Waves Ship Positions

Plan B

Last reported at 2015-Jul-04 17:05 UTC. Time now 2015-Jul-04 19:03 UTC.
Position N 41°22' E 009°02'.

Length 49 m; draft 3.2 m.

Type: Pleasure craft. MMSI: 319075000.

Date/timePositionNaut miles runAvg speedWind from/ knotsBaromVisibWave heightAir tempDewpointWater temp
2015-Jul-04 17:05N 41°22' E 009°02'6311.4
2015-Jul-04 11:33N 42°21' E 008°31'1211.3
2015-Jul-04 10:31N 42°31' E 008°39'4 0.2
2015-Jul-03 17:08N 42°34' E 008°43'2 3.8
2015-Jul-03 16:34N 42°35' E 008°45'1 1.4
2015-Jul-03 15:33N 42°34' E 008°47'0 0.0
2015-Jul-03 14:33N 42°34' E 008°47'2 0.4
2015-Jul-03 09:12N 42°34' E 008°44'1 0.8
2015-Jul-03 08:33N 42°34' E 008°44'1311.3
2015-Jul-03 07:27N 42°47' E 008°47'1011.1
2015-Jul-03 06:31N 42°57' E 008°50'1010.7
2015-Jul-03 05:33N 43°07' E 008°53'1010.5
2015-Jul-03 04:33N 43°17' E 008°56'1110.9
2015-Jul-03 03:33N 43°28' E 008°59'1111.3
2015-Jul-03 02:33N 43°39' E 009°02'1111.3
2015-Jul-03 01:33N 43°50' E 009°05'1111.4
2015-Jul-03 00:33N 44°01' E 009°07'1211.6
2015-Jul-02 23:33N 44°13' E 009°11'6 5.3
2015-Jul-02 22:30N 44°18' E 009°12'0 0.0
2015-Jul-02 21:33N 44°18' E 009°12'0 0.0
2015-Jul-02 20:33N 44°18' E 009°12'0 0.0
2015-Jul-02 19:32N 44°18' E 009°12'0 0.0
2015-Jul-02 18:32N 44°18' E 009°12'0 0.0
2015-Jul-02 17:32N 44°18' E 009°12'0 0.0
2015-Jul-02 16:32N 44°18' E 009°12'0 0.0
2015-Jul-02 15:32N 44°18' E 009°12'0 0.0
2015-Jul-02 14:29N 44°18' E 009°12'0 0.0
2015-Jul-02 13:32N 44°18' E 009°12'0 0.0
2015-Jul-02 12:32N 44°18' E 009°12'0 0.0
2015-Jul-02 11:29N 44°18' E 009°12'0 0.0
2015-Jul-02 10:20N 44°18' E 009°12'0 0.0
2015-Jul-02 09:32N 44°18' E 009°12'0 0.0
2015-Jul-02 08:26N 44°18' E 009°12'0 0.0
2015-Jul-02 07:32N 44°18' E 009°12'0 0.0
2015-Jul-02 06:32N 44°18' E 009°12'0 0.0
2015-Jul-02 05:26N 44°18' E 009°12'0 0.0
2015-Jul-02 04:32N 44°18' E 009°12'0 0.0
2015-Jul-02 03:32N 44°18' E 009°12'0 0.0
2015-Jul-02 02:32N 44°18' E 009°12'0 0.0
2015-Jul-02 01:32N 44°18' E 009°12'0 0.0
2015-Jul-02 00:32N 44°18' E 009°12'0 0.0
2015-Jul-01 23:32N 44°18' E 009°12'0 0.0
2015-Jul-01 22:32N 44°18' E 009°12'0 0.0
2015-Jul-01 21:32N 44°18' E 009°12'0 0.0
2015-Jul-01 20:32N 44°18' E 009°12'0 0.0
2015-Jul-01 19:32N 44°18' E 009°12'0 0.0
2015-Jul-01 18:32N 44°18' E 009°12'0 0.0
2015-Jul-01 17:32N 44°18' E 009°12'0 0.0
2015-Jul-01 16:32N 44°18' E 009°12'0 0.0
2015-Jul-01 15:29N 44°18' E 009°12'0 0.0
2015-Jul-01 14:26N 44°18' E 009°12'0 0.0
2015-Jul-01 13:29N 44°18' E 009°12'0 0.0
2015-Jul-01 12:32N 44°18' E 009°12'0 0.0
2015-Jul-01 11:29N 44°18' E 009°12'0 0.0
2015-Jul-01 10:32N 44°18' E 009°12'0 0.0
2015-Jul-01 09:33N 44°18' E 009°12'10 9.5
2015-Jul-01 08:33N 44°09' E 009°10'1211.6
2015-Jul-01 07:32N 43°57' E 009°05'1211.9
2015-Jul-01 06:33N 43°46' E 009°01'1212.1
2015-Jul-01 05:33N 43°34' E 008°57'1212.0
2015-Jul-01 04:33N 43°23' E 008°53'1212.0
2015-Jul-01 03:33N 43°11' E 008°49'1312.3
2015-Jul-01 02:28N 42°58' E 008°44'1111.7
2015-Jul-01 01:33N 42°48' E 008°41'2411.9
2015-Jun-30 23:32N 42°25' E 008°32'1010.3
2015-Jun-30 22:32N 42°14' E 008°34'0 0.0
2015-Jun-30 21:31N 42°14' E 008°34'0 0.0
2015-Jun-30 20:33N 42°14' E 008°34'0 0.0
2015-Jun-30 19:33N 42°14' E 008°34'0 0.0
2015-Jun-30 18:33N 42°14' E 008°34'0 0.0
2015-Jun-30 17:33N 42°14' E 008°34'0 0.0
2015-Jun-30 16:33N 42°14' E 008°34'0 0.0
2015-Jun-30 15:32N 42°14' E 008°34'0 0.0
2015-Jun-30 14:33N 42°14' E 008°34'0 0.0
2015-Jun-30 13:33N 42°14' E 008°34'0 0.0
2015-Jun-30 12:32N 42°14' E 008°34'0 0.0
2015-Jun-30 11:33N 42°14' E 008°34'0 0.0
2015-Jun-30 10:29N 42°14' E 008°34'0 0.0
2015-Jun-30 09:28N 42°14' E 008°34'0 0.0
2015-Jun-30 06:15N 42°14' E 008°34'0 0.0
2015-Jun-30 05:33N 42°14' E 008°34'0 0.0
2015-Jun-30 04:31N 42°14' E 008°34'0 0.0
2015-Jun-30 03:33N 42°14' E 008°34'0 0.0
2015-Jun-30 02:13N 42°14' E 008°34'0 0.0
2015-Jun-30 01:33N 42°14' E 008°34'0 0.0
2015-Jun-30 00:33N 42°14' E 008°34'0 0.0
2015-Jun-29 23:33N 42°14' E 008°34'0 0.0
2015-Jun-29 22:33N 42°14' E 008°34'0 0.0
2015-Jun-29 20:33N 42°14' E 008°34'0 0.0
2015-Jun-29 19:33N 42°14' E 008°34'0 0.0
2015-Jun-29 18:33N 42°14' E 008°34'0 0.0
2015-Jun-29 17:33N 42°14' E 008°34'0 0.0
2015-Jun-29 16:32N 42°14' E 008°34'0 0.0
2015-Jun-29 15:33N 42°14' E 008°34'0 0.0
2015-Jun-29 14:29N 42°14' E 008°34'0 0.0
2015-Jun-29 13:33N 42°14' E 008°34'49 1.4
2015-Jun-28 01:16N 43°04' E 008°40'811.3
2015-Jun-28 00:33N 43°12' E 008°41'1211.6
2015-Jun-27 23:33N 43°23' E 008°44'1211.6
2015-Jun-27 22:33N 43°34' E 008°48'1211.8
2015-Jun-27 21:33N 43°46' E 008°51'1211.9
2015-Jun-27 20:33N 43°58' E 008°54'1211.9
2015-Jun-27 19:33N 44°09' E 008°56'1211.6
2015-Jun-27 18:33N 44°21' E 008°57'4 3.8
2015-Jun-27 17:33N 44°25' E 008°55'0 0.0
2015-Jun-27 16:33N 44°25' E 008°55'0 0.0
2015-Jun-27 15:33N 44°25' E 008°55'0 0.0
2015-Jun-27 14:33N 44°25' E 008°55'0 0.0
2015-Jun-27 13:32N 44°25' E 008°55'0 0.0
2015-Jun-27 12:33N 44°25' E 008°55'0 0.0
2015-Jun-27 11:33N 44°25' E 008°55'0 0.0
2015-Jun-27 10:33N 44°25' E 008°55'0 0.0
2015-Jun-27 09:33N 44°25' E 008°55'0 0.0
2015-Jun-27 08:32N 44°25' E 008°55'0 0.0
2015-Jun-27 07:33N 44°25' E 008°55'0 0.0
2015-Jun-27 06:33N 44°25' E 008°55'0 0.0
2015-Jun-27 05:32N 44°25' E 008°55'0 0.0
2015-Jun-27 04:33N 44°25' E 008°55'0 0.0
2015-Jun-27 03:33N 44°25' E 008°55'0 0.0
2015-Jun-27 02:33N 44°25' E 008°55'0 0.0
2015-Jun-27 01:33N 44°25' E 008°55'0 0.0
2015-Jun-27 00:33N 44°25' E 008°55'0 0.0
2015-Jun-26 23:33N 44°25' E 008°55'0 0.0
2015-Jun-26 22:33N 44°25' E 008°55'0 0.0
2015-Jun-26 21:33N 44°25' E 008°55'0 0.0
2015-Jun-26 20:33N 44°25' E 008°55'0 0.0
2015-Jun-26 19:33N 44°25' E 008°55'0 0.0
2015-Jun-26 18:33N 44°25' E 008°55'0 0.0
2015-Jun-26 17:33N 44°25' E 008°55'0 0.0
2015-Jun-26 16:30N 44°25' E 008°55'0 0.0
2015-Jun-26 15:33N 44°25' E 008°55'0 0.0
2015-Jun-26 14:33N 44°25' E 008°55'0 0.0
2015-Jun-26 13:33N 44°25' E 008°55'0 0.0
2015-Jun-26 12:33N 44°25' E 008°55'0 0.0
2015-Jun-26 11:32N 44°25' E 008°55'0 0.0
2015-Jun-26 10:32N 44°25' E 008°55'0 0.0
2015-Jun-26 09:33N 44°25' E 008°55'0 0.0
2015-Jun-26 08:33N 44°25' E 008°55'0 0.0
2015-Jun-26 07:33N 44°25' E 008°55'0 0.0
2015-Jun-26 06:33N 44°25' E 008°55'0 0.0
2015-Jun-26 05:33N 44°25' E 008°55'0 0.0
2015-Jun-26 04:33N 44°25' E 008°55'0 0.0
2015-Jun-26 03:33N 44°25' E 008°55'0 0.0
2015-Jun-26 02:33N 44°25' E 008°55'0 0.0
2015-Jun-26 01:33N 44°25' E 008°55'0 0.0
2015-Jun-26 00:33N 44°25' E 008°55'0 0.0
2015-Jun-25 23:33N 44°25' E 008°55'0 0.0
2015-Jun-25 22:33N 44°25' E 008°55'0 0.0
2015-Jun-25 21:33N 44°25' E 008°55'0 0.0
2015-Jun-25 20:33N 44°25' E 008°55'0 0.0
2015-Jun-25 19:33N 44°25' E 008°55'0 0.0
2015-Jun-25 18:33N 44°25' E 008°55'0 0.0
2015-Jun-25 17:33N 44°25' E 008°55'0 0.0
2015-Jun-25 16:33N 44°25' E 008°55'0 0.0
2015-Jun-25 15:33N 44°25' E 008°55'0 0.0
2015-Jun-25 14:33N 44°25' E 008°55'0 0.0
2015-Jun-25 13:33N 44°25' E 008°55'0 0.0
2015-Jun-25 12:33N 44°25' E 008°55'0 0.0
2015-Jun-25 11:33N 44°25' E 008°55'0 0.0
2015-Jun-25 10:33N 44°25' E 008°55'0 0.0
2015-Jun-25 09:33N 44°25' E 008°55'0 0.0
2015-Jun-25 08:33N 44°25' E 008°55'0 0.0
2015-Jun-25 07:33N 44°25' E 008°55'0 0.0
2015-Jun-25 06:33N 44°25' E 008°55'0 0.0
2015-Jun-25 05:33N 44°25' E 008°55'0 0.0
2015-Jun-25 04:33N 44°25' E 008°55'0 0.0
2015-Jun-25 03:33N 44°25' E 008°55'0 0.0
2015-Jun-25 02:33N 44°25' E 008°55'0 0.0
2015-Jun-25 01:33N 44°25' E 008°55'0 0.0
2015-Jun-25 00:33N 44°25' E 008°55'0 0.0
2015-Jun-24 23:33N 44°25' E 008°55'0 0.0
2015-Jun-24 22:33N 44°25' E 008°55'0 0.0
2015-Jun-24 21:33N 44°25' E 008°55'0 0.0
2015-Jun-24 20:33N 44°25' E 008°55'0 0.0
2015-Jun-24 19:32N 44°25' E 008°55'0 0.0
2015-Jun-24 18:33N 44°25' E 008°55'0 0.0
2015-Jun-24 17:31N 44°25' E 008°55'  
Track history (hours):
 
Tides and Currents Weather Stations Pressure Air Temp Water Temp Dewpoint Dewpoint Depression Visibility Wind Speed Wind Dir Waves Ship Positions

Plan B

Last reported at 2015-Jul-04 17:05 UTC. Time now 2015-Jul-04 19:03 UTC.
Position N 41°22' E 009°02'.

Length 49 m; draft 3.2 m.

Type: Pleasure craft. MMSI: 319075000.

Date/timePositionNaut miles runAvg speedWind from/ knotsBaromVisibWave heightAir tempDewpointWater temp
2015-Jul-04 17:05N 41°22' E 009°02'6311.4
2015-Jul-04 11:33N 42°21' E 008°31'1211.3
2015-Jul-04 10:31N 42°31' E 008°39'4 0.2
2015-Jul-03 17:08N 42°34' E 008°43'2 3.8
2015-Jul-03 16:34N 42°35' E 008°45'1 1.4
2015-Jul-03 15:33N 42°34' E 008°47'0 0.0
2015-Jul-03 14:33N 42°34' E 008°47'2 0.4
2015-Jul-03 09:12N 42°34' E 008°44'1 0.8
2015-Jul-03 08:33N 42°34' E 008°44'1311.3
2015-Jul-03 07:27N 42°47' E 008°47'1011.1
2015-Jul-03 06:31N 42°57' E 008°50'1010.7
2015-Jul-03 05:33N 43°07' E 008°53'1010.5
2015-Jul-03 04:33N 43°17' E 008°56'1110.9
2015-Jul-03 03:33N 43°28' E 008°59'1111.3
2015-Jul-03 02:33N 43°39' E 009°02'1111.3
2015-Jul-03 01:33N 43°50' E 009°05'1111.4
2015-Jul-03 00:33N 44°01' E 009°07'1211.6
2015-Jul-02 23:33N 44°13' E 009°11'6 5.3
2015-Jul-02 22:30N 44°18' E 009°12'0 0.0
2015-Jul-02 21:33N 44°18' E 009°12'0 0.0
2015-Jul-02 20:33N 44°18' E 009°12'0 0.0
2015-Jul-02 19:32N 44°18' E 009°12'0 0.0
2015-Jul-02 18:32N 44°18' E 009°12'0 0.0
2015-Jul-02 17:32N 44°18' E 009°12'0 0.0
2015-Jul-02 16:32N 44°18' E 009°12'0 0.0
2015-Jul-02 15:32N 44°18' E 009°12'0 0.0
2015-Jul-02 14:29N 44°18' E 009°12'0 0.0
2015-Jul-02 13:32N 44°18' E 009°12'0 0.0
2015-Jul-02 12:32N 44°18' E 009°12'0 0.0
2015-Jul-02 11:29N 44°18' E 009°12'0 0.0
2015-Jul-02 10:20N 44°18' E 009°12'0 0.0
2015-Jul-02 09:32N 44°18' E 009°12'0 0.0
2015-Jul-02 08:26N 44°18' E 009°12'0 0.0
2015-Jul-02 07:32N 44°18' E 009°12'0 0.0
2015-Jul-02 06:32N 44°18' E 009°12'0 0.0
2015-Jul-02 05:26N 44°18' E 009°12'0 0.0
2015-Jul-02 04:32N 44°18' E 009°12'0 0.0
2015-Jul-02 03:32N 44°18' E 009°12'0 0.0
2015-Jul-02 02:32N 44°18' E 009°12'0 0.0
2015-Jul-02 01:32N 44°18' E 009°12'0 0.0
2015-Jul-02 00:32N 44°18' E 009°12'0 0.0
2015-Jul-01 23:32N 44°18' E 009°12'0 0.0
2015-Jul-01 22:32N 44°18' E 009°12'0 0.0
2015-Jul-01 21:32N 44°18' E 009°12'0 0.0
2015-Jul-01 20:32N 44°18' E 009°12'0 0.0
2015-Jul-01 19:32N 44°18' E 009°12'0 0.0
2015-Jul-01 18:32N 44°18' E 009°12'0 0.0
2015-Jul-01 17:32N 44°18' E 009°12'0 0.0
2015-Jul-01 16:32N 44°18' E 009°12'0 0.0
2015-Jul-01 15:29N 44°18' E 009°12'0 0.0
2015-Jul-01 14:26N 44°18' E 009°12'0 0.0
2015-Jul-01 13:29N 44°18' E 009°12'0 0.0
2015-Jul-01 12:32N 44°18' E 009°12'0 0.0
2015-Jul-01 11:29N 44°18' E 009°12'0 0.0
2015-Jul-01 10:32N 44°18' E 009°12'0 0.0
2015-Jul-01 09:33N 44°18' E 009°12'10 9.5
2015-Jul-01 08:33N 44°09' E 009°10'1211.6
2015-Jul-01 07:32N 43°57' E 009°05'1211.9
2015-Jul-01 06:33N 43°46' E 009°01'1212.1
2015-Jul-01 05:33N 43°34' E 008°57'1212.0
2015-Jul-01 04:33N 43°23' E 008°53'1212.0
2015-Jul-01 03:33N 43°11' E 008°49'1312.3
2015-Jul-01 02:28N 42°58' E 008°44'1111.7
2015-Jul-01 01:33N 42°48' E 008°41'2411.9
2015-Jun-30 23:32N 42°25' E 008°32'1010.3
2015-Jun-30 22:32N 42°14' E 008°34'0 0.0
2015-Jun-30 21:31N 42°14' E 008°34'0 0.0
2015-Jun-30 20:33N 42°14' E 008°34'0 0.0
2015-Jun-30 19:33N 42°14' E 008°34'0 0.0
2015-Jun-30 18:33N 42°14' E 008°34'0 0.0
2015-Jun-30 17:33N 42°14' E 008°34'0 0.0
2015-Jun-30 16:33N 42°14' E 008°34'0 0.0
2015-Jun-30 15:32N 42°14' E 008°34'0 0.0
2015-Jun-30 14:33N 42°14' E 008°34'0 0.0
2015-Jun-30 13:33N 42°14' E 008°34'0 0.0
2015-Jun-30 12:32N 42°14' E 008°34'0 0.0
2015-Jun-30 11:33N 42°14' E 008°34'0 0.0
2015-Jun-30 10:29N 42°14' E 008°34'0 0.0
2015-Jun-30 09:28N 42°14' E 008°34'0 0.0
2015-Jun-30 06:15N 42°14' E 008°34'0 0.0
2015-Jun-30 05:33N 42°14' E 008°34'0 0.0
2015-Jun-30 04:31N 42°14' E 008°34'0 0.0
2015-Jun-30 03:33N 42°14' E 008°34'0 0.0
2015-Jun-30 02:13N 42°14' E 008°34'0 0.0
2015-Jun-30 01:33N 42°14' E 008°34'0 0.0
2015-Jun-30 00:33N 42°14' E 008°34'0 0.0
2015-Jun-29 23:33N 42°14' E 008°34'0 0.0
2015-Jun-29 22:33N 42°14' E 008°34'0 0.0
2015-Jun-29 20:33N 42°14' E 008°34'0 0.0
2015-Jun-29 19:33N 42°14' E 008°34'0 0.0
2015-Jun-29 18:33N 42°14' E 008°34'0 0.0
2015-Jun-29 17:33N 42°14' E 008°34'0 0.0
2015-Jun-29 16:32N 42°14' E 008°34'0 0.0
2015-Jun-29 15:33N 42°14' E 008°34'0 0.0
2015-Jun-29 14:29N 42°14' E 008°34'0 0.0
2015-Jun-29 13:33N 42°14' E 008°34'49 1.4
2015-Jun-28 01:16N 43°04' E 008°40'811.3
2015-Jun-28 00:33N 43°12' E 008°41'1211.6
2015-Jun-27 23:33N 43°23' E 008°44'1211.6
2015-Jun-27 22:33N 43°34' E 008°48'1211.8
2015-Jun-27 21:33N 43°46' E 008°51'1211.9
2015-Jun-27 20:33N 43°58' E 008°54'1211.9
2015-Jun-27 19:33N 44°09' E 008°56'1211.6
2015-Jun-27 18:33N 44°21' E 008°57'4 3.8
2015-Jun-27 17:33N 44°25' E 008°55'0 0.0
2015-Jun-27 16:33N 44°25' E 008°55'0 0.0
2015-Jun-27 15:33N 44°25' E 008°55'0 0.0
2015-Jun-27 14:33N 44°25' E 008°55'0 0.0
2015-Jun-27 13:32N 44°25' E 008°55'0 0.0
2015-Jun-27 12:33N 44°25' E 008°55'0 0.0
2015-Jun-27 11:33N 44°25' E 008°55'0 0.0
2015-Jun-27 10:33N 44°25' E 008°55'0 0.0
2015-Jun-27 09:33N 44°25' E 008°55'0 0.0
2015-Jun-27 08:32N 44°25' E 008°55'0 0.0
2015-Jun-27 07:33N 44°25' E 008°55'0 0.0
2015-Jun-27 06:33N 44°25' E 008°55'0 0.0
2015-Jun-27 05:32N 44°25' E 008°55'0 0.0
2015-Jun-27 04:33N 44°25' E 008°55'0 0.0
2015-Jun-27 03:33N 44°25' E 008°55'0 0.0
2015-Jun-27 02:33N 44°25' E 008°55'0 0.0
2015-Jun-27 01:33N 44°25' E 008°55'0 0.0
2015-Jun-27 00:33N 44°25' E 008°55'0 0.0
2015-Jun-26 23:33N 44°25' E 008°55'0 0.0
2015-Jun-26 22:33N 44°25' E 008°55'0 0.0
2015-Jun-26 21:33N 44°25' E 008°55'0 0.0
2015-Jun-26 20:33N 44°25' E 008°55'0 0.0
2015-Jun-26 19:33N 44°25' E 008°55'0 0.0
2015-Jun-26 18:33N 44°25' E 008°55'0 0.0
2015-Jun-26 17:33N 44°25' E 008°55'0 0.0
2015-Jun-26 16:30N 44°25' E 008°55'0 0.0
2015-Jun-26 15:33N 44°25' E 008°55'0 0.0
2015-Jun-26 14:33N 44°25' E 008°55'0 0.0
2015-Jun-26 13:33N 44°25' E 008°55'0 0.0
2015-Jun-26 12:33N 44°25' E 008°55'0 0.0
2015-Jun-26 11:32N 44°25' E 008°55'0 0.0
2015-Jun-26 10:32N 44°25' E 008°55'0 0.0
2015-Jun-26 09:33N 44°25' E 008°55'0 0.0
2015-Jun-26 08:33N 44°25' E 008°55'0 0.0
2015-Jun-26 07:33N 44°25' E 008°55'0 0.0
2015-Jun-26 06:33N 44°25' E 008°55'0 0.0
2015-Jun-26 05:33N 44°25' E 008°55'0 0.0
2015-Jun-26 04:33N 44°25' E 008°55'0 0.0
2015-Jun-26 03:33N 44°25' E 008°55'0 0.0
2015-Jun-26 02:33N 44°25' E 008°55'0 0.0
2015-Jun-26 01:33N 44°25' E 008°55'0 0.0
2015-Jun-26 00:33N 44°25' E 008°55'0 0.0
2015-Jun-25 23:33N 44°25' E 008°55'0 0.0
2015-Jun-25 22:33N 44°25' E 008°55'0 0.0
2015-Jun-25 21:33N 44°25' E 008°55'0 0.0
2015-Jun-25 20:33N 44°25' E 008°55'0 0.0
2015-Jun-25 19:33N 44°25' E 008°55'0 0.0
2015-Jun-25 18:33N 44°25' E 008°55'0 0.0
2015-Jun-25 17:33N 44°25' E 008°55'0 0.0
2015-Jun-25 16:33N 44°25' E 008°55'0 0.0
2015-Jun-25 15:33N 44°25' E 008°55'0 0.0
2015-Jun-25 14:33N 44°25' E 008°55'0 0.0
2015-Jun-25 13:33N 44°25' E 008°55'0 0.0
2015-Jun-25 12:33N 44°25' E 008°55'0 0.0
2015-Jun-25 11:33N 44°25' E 008°55'0 0.0
2015-Jun-25 10:33N 44°25' E 008°55'0 0.0
2015-Jun-25 09:33N 44°25' E 008°55'0 0.0
2015-Jun-25 08:33N 44°25' E 008°55'0 0.0
2015-Jun-25 07:33N 44°25' E 008°55'0 0.0
2015-Jun-25 06:33N 44°25' E 008°55'0 0.0
2015-Jun-25 05:33N 44°25' E 008°55'0 0.0
2015-Jun-25 04:33N 44°25' E 008°55'0 0.0
2015-Jun-25 03:33N 44°25' E 008°55'0 0.0
2015-Jun-25 02:33N 44°25' E 008°55'0 0.0
2015-Jun-25 01:33N 44°25' E 008°55'0 0.0
2015-Jun-25 00:33N 44°25' E 008°55'0 0.0
2015-Jun-24 23:33N 44°25' E 008°55'0 0.0
2015-Jun-24 22:33N 44°25' E 008°55'0 0.0
2015-Jun-24 21:33N 44°25' E 008°55'0 0.0
2015-Jun-24 20:33N 44°25' E 008°55'0 0.0
2015-Jun-24 19:32N 44°25' E 008°55'0 0.0
2015-Jun-24 18:33N 44°25' E 008°55'0 0.0
2015-Jun-24 17:31N 44°25' E 008°55'  

Dump ship's entire track history